createdAt,value
2023-05-25T00:01:37.931Z,57.30
2023-05-25T00:04:05.773Z,57.60
2023-05-25T00:06:33.293Z,57.50
2023-05-25T00:09:00.612Z,57.50
2023-05-25T00:11:28.119Z,57.50
2023-05-25T00:13:55.486Z,57.60
2023-05-25T00:16:22.776Z,57.50
2023-05-25T00:18:50.267Z,57.60
2023-05-25T00:21:18.145Z,57.50
2023-05-25T00:23:46.122Z,57.90
2023-05-25T00:26:13.362Z,58.00
2023-05-25T00:28:40.921Z,58.20
2023-05-25T00:31:08.267Z,58.10
2023-05-25T00:33:36.220Z,58.20
2023-05-25T00:36:04.007Z,58.40
2023-05-25T00:38:31.810Z,58.50
2023-05-25T00:40:59.423Z,59.00
2023-05-25T00:43:26.913Z,59.00
2023-05-25T00:45:54.569Z,59.10
2023-05-25T00:48:23.799Z,59.10
2023-05-25T00:51:00.077Z,59.00
2023-05-25T00:53:27.463Z,59.40
2023-05-25T00:56:04.959Z,59.30
2023-05-25T00:58:35.782Z,59.40
2023-05-25T01:01:06.316Z,59.10
2023-05-25T01:03:37.979Z,59.20
2023-05-25T01:06:11.571Z,59.20
2023-05-25T01:08:42.159Z,59.40
2023-05-25T01:11:11.941Z,59.70
2023-05-25T01:13:40.435Z,59.80
2023-05-25T01:16:09.578Z,60.30
2023-05-25T01:18:37.607Z,60.60
2023-05-25T01:21:20.423Z,60.70
2023-05-25T01:24:03.986Z,61.20
2023-05-25T01:26:39.314Z,60.90
2023-05-25T01:29:07.054Z,60.80
2023-05-25T01:31:36.533Z,60.40
2023-05-25T01:34:06.577Z,60.40
2023-05-25T01:36:34.229Z,60.30
2023-05-25T01:39:07.446Z,60.20
2023-05-25T01:41:34.697Z,60.30
2023-05-25T01:44:02.009Z,60.30
2023-05-25T01:46:38.686Z,60.40
2023-05-25T01:49:11.793Z,60.50
2023-05-25T01:51:58.312Z,60.40
2023-05-25T01:54:35.837Z,60.60
2023-05-25T01:57:06.450Z,60.90
2023-05-25T01:59:36.323Z,60.70
2023-05-25T02:02:05.630Z,60.90
2023-05-25T02:04:33.610Z,60.90
2023-05-25T02:07:01.182Z,60.80
2023-05-25T02:09:28.534Z,61.30
2023-05-25T02:11:56.083Z,61.10
2023-05-25T02:14:23.372Z,61.10
2023-05-25T02:16:50.707Z,60.90
2023-05-25T02:19:18.082Z,60.90
2023-05-25T02:21:46.115Z,61.00
2023-05-25T02:24:13.524Z,61.10
2023-05-25T02:26:40.935Z,61.20
2023-05-25T02:29:09.093Z,61.40
2023-05-25T02:31:37.444Z,61.30
2023-05-25T02:34:04.874Z,61.50
2023-05-25T02:36:34.634Z,61.50
2023-05-25T02:39:02.169Z,61.60
2023-05-25T02:41:29.438Z,61.90
2023-05-25T02:43:56.734Z,62.00
2023-05-25T02:46:24.148Z,62.00
2023-05-25T02:48:51.542Z,62.00
2023-05-25T02:51:19.041Z,62.00
2023-05-25T02:53:46.353Z,62.00
2023-05-25T02:56:13.669Z,62.20
2023-05-25T02:58:41.043Z,62.20
2023-05-25T03:01:19.061Z,62.40
2023-05-25T03:03:53.469Z,62.60
2023-05-25T03:06:23.374Z,62.60
2023-05-25T03:08:55.383Z,62.50
2023-05-25T03:11:23.304Z,62.60
2023-05-25T03:13:51.950Z,62.80
2023-05-25T03:16:23.146Z,62.90
2023-05-25T03:18:50.625Z,63.00
2023-05-25T03:21:18.023Z,63.10
2023-05-25T03:23:45.692Z,63.50
2023-05-25T03:26:13.020Z,63.70
2023-05-25T03:28:41.135Z,63.60
2023-05-25T03:31:08.391Z,63.60
2023-05-25T03:33:36.031Z,63.50
2023-05-25T03:36:09.676Z,63.50
2023-05-25T03:38:37.371Z,63.60
2023-05-25T03:41:05.411Z,63.90
2023-05-25T03:43:32.857Z,63.90
2023-05-25T03:46:00.579Z,64.30
2023-05-25T03:48:28.091Z,64.10
2023-05-25T03:50:55.600Z,63.80
2023-05-25T03:53:23.223Z,63.60
2023-05-25T03:55:52.175Z,63.60
2023-05-25T03:58:19.781Z,63.70
2023-05-25T04:00:49.695Z,63.70
2023-05-25T04:03:17.189Z,63.60
2023-05-25T04:05:47.257Z,64.20
2023-05-25T04:08:18.071Z,64.50
2023-05-25T04:10:46.492Z,64.50
2023-05-25T04:13:14.076Z,64.30
2023-05-25T04:15:41.650Z,64.40
2023-05-25T04:18:13.701Z,64.60
2023-05-25T04:20:41.104Z,64.70
2023-05-25T04:23:11.452Z,65.10
2023-05-25T04:25:42.140Z,65.20
2023-05-25T04:28:09.832Z,65.00
2023-05-25T04:30:59.132Z,65.00
2023-05-25T04:33:31.483Z,64.80
2023-05-25T04:36:08.762Z,64.70
2023-05-25T04:38:37.396Z,64.60
2023-05-25T04:41:08.313Z,64.30
2023-05-25T04:43:36.805Z,64.50
2023-05-25T04:46:05.362Z,65.30
2023-05-25T04:48:34.222Z,64.80
2023-05-25T04:51:03.095Z,64.50
2023-05-25T04:53:32.331Z,63.80
2023-05-25T04:55:59.763Z,62.90
2023-05-25T04:58:29.378Z,62.20
2023-05-25T05:00:57.350Z,61.40
2023-05-25T05:03:25.588Z,60.40
2023-05-25T05:05:53.651Z,59.50
2023-05-25T05:08:28.577Z,59.20
2023-05-25T05:10:56.098Z,58.50
2023-05-25T05:13:24.595Z,57.50
2023-05-25T05:15:53.990Z,56.60
2023-05-25T05:18:21.479Z,56.00
2023-05-25T05:20:49.024Z,55.00
2023-05-25T05:23:17.463Z,54.00
2023-05-25T05:25:46.242Z,53.00
2023-05-25T05:28:14.633Z,52.50
2023-05-25T05:30:42.116Z,51.70
2023-05-25T05:33:09.869Z,51.10
2023-05-25T05:35:45.209Z,51.00
2023-05-25T05:38:17.072Z,50.20
2023-05-25T05:40:45.249Z,49.00
2023-05-25T05:43:13.991Z,47.80
2023-05-25T05:45:41.451Z,47.50
2023-05-25T05:48:11.716Z,46.60
2023-05-25T05:50:42.119Z,45.90
2023-05-25T05:53:11.022Z,44.70
2023-05-25T05:55:38.758Z,44.30
2023-05-25T05:58:06.328Z,43.90
2023-05-25T06:00:34.244Z,43.70
2023-05-25T06:03:01.784Z,42.90
2023-05-25T06:05:31.243Z,42.20
2023-05-25T06:07:59.459Z,41.60
2023-05-25T06:10:26.866Z,40.90
2023-05-25T06:12:54.549Z,40.60
2023-05-25T06:15:22.368Z,39.90
2023-05-25T06:17:52.280Z,39.00
2023-05-25T06:20:19.849Z,38.50
2023-05-25T06:22:47.744Z,38.00
2023-05-25T06:25:16.583Z,37.50
2023-05-25T06:27:44.724Z,36.60
2023-05-25T06:30:13.540Z,36.90
2023-05-25T06:32:43.316Z,36.40
2023-05-25T06:35:17.292Z,36.10
2023-05-25T06:37:45.877Z,35.50
2023-05-25T06:40:13.380Z,34.90
2023-05-25T06:42:41.621Z,34.60
2023-05-25T06:45:27.882Z,34.60
2023-05-25T06:47:55.572Z,34.20
2023-05-25T06:50:23.497Z,34.10
2023-05-25T06:52:51.222Z,33.70
2023-05-25T06:55:18.671Z,33.00
2023-05-25T06:57:46.338Z,33.00
2023-05-25T07:00:14.422Z,32.30
2023-05-25T07:02:41.873Z,31.60
2023-05-25T07:05:09.818Z,31.70
2023-05-25T07:07:37.236Z,31.60
2023-05-25T07:10:05.171Z,31.40
2023-05-25T07:12:32.739Z,30.90
2023-05-25T07:15:00.255Z,30.00
2023-05-25T07:17:28.811Z,29.70
2023-05-25T07:19:56.746Z,29.40
2023-05-25T07:22:24.279Z,29.20
2023-05-25T07:24:51.778Z,29.60
2023-05-25T07:27:19.769Z,29.20
2023-05-25T07:29:47.334Z,29.20
2023-05-25T07:32:14.809Z,29.40
2023-05-25T07:34:42.226Z,29.10
2023-05-25T07:37:09.706Z,28.80
2023-05-25T07:39:37.201Z,28.70
2023-05-25T07:42:05.562Z,28.20
2023-05-25T07:44:33.045Z,28.10
2023-05-25T07:47:00.525Z,28.00
2023-05-25T07:49:28.016Z,28.20
2023-05-25T07:51:55.613Z,28.10
2023-05-25T07:54:23.158Z,28.10
2023-05-25T07:56:51.105Z,27.70
2023-05-25T07:59:18.616Z,27.60
2023-05-25T08:01:46.378Z,27.40
2023-05-25T08:04:13.987Z,27.90
2023-05-25T08:06:42.153Z,27.80
2023-05-25T08:09:09.646Z,27.60
2023-05-25T08:11:37.083Z,27.70
2023-05-25T08:14:04.618Z,27.30
2023-05-25T08:16:31.941Z,27.20
2023-05-25T08:19:01.447Z,26.70
2023-05-25T08:21:28.830Z,26.30
2023-05-25T08:23:56.423Z,26.70
2023-05-25T08:26:41.307Z,26.80
2023-05-25T08:29:11.587Z,26.70
2023-05-25T08:31:39.072Z,26.70
2023-05-25T08:34:06.496Z,26.30
2023-05-25T08:36:35.885Z,26.30
2023-05-25T08:39:04.681Z,26.40
2023-05-25T08:41:34.287Z,26.20
2023-05-25T08:44:06.268Z,25.80
2023-05-25T08:46:33.654Z,25.60
2023-05-25T08:49:12.459Z,25.70
2023-05-25T08:51:51.262Z,25.90
2023-05-25T08:54:22.474Z,26.00
2023-05-25T08:56:52.479Z,26.20
2023-05-25T08:59:56.332Z,26.40
2023-05-25T09:02:42.130Z,26.60
2023-05-25T09:05:09.870Z,25.90
2023-05-25T09:07:37.524Z,25.90
2023-05-25T09:10:05.700Z,26.00
2023-05-25T09:12:34.808Z,25.30
2023-05-25T09:15:02.259Z,25.10
2023-05-25T09:17:29.703Z,25.20
2023-05-25T09:19:57.299Z,25.70
2023-05-25T09:22:24.645Z,25.70
2023-05-25T09:24:53.302Z,25.70
2023-05-25T09:27:23.097Z,25.60
2023-05-25T09:29:51.378Z,25.60
2023-05-25T09:32:19.831Z,25.30
2023-05-25T09:34:47.655Z,25.60
2023-05-25T09:37:19.063Z,25.40
2023-05-25T09:39:48.018Z,25.30
2023-05-25T09:42:15.666Z,25.40
2023-05-25T09:44:43.347Z,25.60
2023-05-25T09:47:11.127Z,25.80
2023-05-25T09:49:38.691Z,26.20
2023-05-25T09:52:06.589Z,26.20
2023-05-25T09:54:34.085Z,26.50
2023-05-25T09:57:05.174Z,26.70
2023-05-25T09:59:32.868Z,26.30
2023-05-25T10:02:01.132Z,26.40
2023-05-25T10:04:28.723Z,26.60
2023-05-25T10:06:57.336Z,26.80
2023-05-25T10:09:28.661Z,27.10
2023-05-25T10:11:58.333Z,27.20
2023-05-25T10:14:30.286Z,27.80
2023-05-25T10:16:59.405Z,28.00
2023-05-25T10:19:50.127Z,28.20
2023-05-25T10:22:25.565Z,29.00
2023-05-25T10:25:14.466Z,29.20
2023-05-25T10:28:02.387Z,29.40
2023-05-25T10:30:30.273Z,29.30
2023-05-25T10:32:57.869Z,29.70
2023-05-25T10:35:25.400Z,29.90
2023-05-25T10:37:54.387Z,30.20
2023-05-25T10:40:25.317Z,29.90
2023-05-25T10:42:52.824Z,30.00
2023-05-25T10:45:20.995Z,30.20
2023-05-25T10:47:48.876Z,30.20
2023-05-25T10:50:22.394Z,31.00
2023-05-25T10:53:08.117Z,30.70
2023-05-25T10:55:52.004Z,30.90
2023-05-25T10:58:21.507Z,30.70
2023-05-25T11:01:03.372Z,30.20
2023-05-25T11:03:51.521Z,31.10
2023-05-25T11:06:21.599Z,31.60
2023-05-25T11:08:49.126Z,31.00
2023-05-25T11:11:16.906Z,31.10
2023-05-25T11:13:49.378Z,31.50
2023-05-25T11:16:18.041Z,31.00
2023-05-25T11:18:51.614Z,31.00
2023-05-25T11:21:40.781Z,31.10
2023-05-25T11:24:14.437Z,30.90
2023-05-25T11:26:59.679Z,31.50
2023-05-25T11:29:31.373Z,31.30
2023-05-25T11:32:00.584Z,31.30
2023-05-25T11:34:28.980Z,32.10
2023-05-25T11:37:01.608Z,31.40
2023-05-25T11:39:30.990Z,31.10
2023-05-25T11:42:06.716Z,30.90
2023-05-25T11:44:36.337Z,31.10
2023-05-25T11:47:08.362Z,31.20
2023-05-25T11:49:41.615Z,31.20
2023-05-25T11:52:09.239Z,30.90
2023-05-25T11:54:37.773Z,31.40
2023-05-25T11:57:05.523Z,31.60
2023-05-25T11:59:33.010Z,31.60
2023-05-25T12:02:02.425Z,31.50
2023-05-25T12:04:32.690Z,31.50
2023-05-25T12:07:05.507Z,31.60
2023-05-25T12:09:34.303Z,32.30
2023-05-25T12:12:04.683Z,32.70
2023-05-25T12:14:35.956Z,32.50
2023-05-25T12:17:03.894Z,32.50
2023-05-25T12:19:31.855Z,32.90
2023-05-25T12:21:59.725Z,32.50
2023-05-25T12:24:27.309Z,32.50
2023-05-25T12:26:58.789Z,32.20
2023-05-25T12:29:26.418Z,32.30
2023-05-25T12:32:01.418Z,32.20
2023-05-25T12:34:28.973Z,32.70
2023-05-25T12:36:57.148Z,32.40
2023-05-25T12:39:30.553Z,32.40
2023-05-25T12:42:02.554Z,32.50
2023-05-25T12:44:33.777Z,32.20
2023-05-25T12:47:24.268Z,32.20
2023-05-25T12:50:13.717Z,32.40
2023-05-25T12:52:46.595Z,32.50
2023-05-25T12:55:30.904Z,32.20
2023-05-25T12:58:01.511Z,32.50
2023-05-25T13:00:34.645Z,32.50
2023-05-25T13:03:02.748Z,32.30
2023-05-25T13:05:33.774Z,32.20
2023-05-25T13:08:02.907Z,32.20
2023-05-25T13:10:32.779Z,32.50
2023-05-25T13:13:00.850Z,32.30
2023-05-25T13:15:28.996Z,32.60
2023-05-25T13:18:00.557Z,32.60
2023-05-25T13:20:32.542Z,32.90
2023-05-25T13:23:00.274Z,32.60
2023-05-25T13:25:28.291Z,32.70
2023-05-25T13:27:57.928Z,33.00
2023-05-25T13:30:26.354Z,32.90
2023-05-25T13:32:53.954Z,32.90
2023-05-25T13:35:38.077Z,33.30
2023-05-25T13:38:06.369Z,33.00
2023-05-25T13:40:34.146Z,33.30
2023-05-25T13:43:01.629Z,33.90
2023-05-25T13:45:29.066Z,34.20
2023-05-25T13:47:56.763Z,34.40
2023-05-25T13:50:24.482Z,34.10
2023-05-25T13:52:52.098Z,34.40
2023-05-25T13:55:19.617Z,34.20
2023-05-25T13:57:47.127Z,34.40
2023-05-25T14:00:14.824Z,34.40
2023-05-25T14:02:42.362Z,34.80
2023-05-25T14:05:10.710Z,35.00
2023-05-25T14:07:39.718Z,34.80
2023-05-25T14:10:09.029Z,34.80
2023-05-25T14:12:37.653Z,34.60
2023-05-25T14:15:06.364Z,34.70
2023-05-25T14:17:34.086Z,34.90
2023-05-25T14:20:04.501Z,34.90
2023-05-25T14:22:32.548Z,34.60
2023-05-25T14:25:00.257Z,34.40
2023-05-25T14:27:27.816Z,34.60
2023-05-25T14:29:55.323Z,34.60
2023-05-25T14:32:22.805Z,35.00
2023-05-25T14:34:50.336Z,35.10
2023-05-25T14:37:18.038Z,35.20
2023-05-25T14:39:45.555Z,35.00
2023-05-25T14:42:12.955Z,35.20
2023-05-25T14:44:40.390Z,35.40
2023-05-25T14:47:08.455Z,35.40
2023-05-25T14:49:35.950Z,35.30
2023-05-25T14:52:03.561Z,35.60
2023-05-25T14:54:30.976Z,35.80
2023-05-25T14:56:58.419Z,36.20
2023-05-25T14:59:25.818Z,36.00
2023-05-25T15:01:53.242Z,36.20
2023-05-25T15:04:20.833Z,36.00
2023-05-25T15:06:48.454Z,36.00
2023-05-25T15:09:16.930Z,36.00
2023-05-25T15:11:44.545Z,36.20
2023-05-25T15:14:11.857Z,36.00
2023-05-25T15:16:39.299Z,35.90
2023-05-25T15:19:09.820Z,35.80
2023-05-25T15:21:38.895Z,36.00
2023-05-25T15:24:06.493Z,36.30
2023-05-25T15:26:33.904Z,36.30
2023-05-25T15:29:01.269Z,36.20
2023-05-25T15:31:28.818Z,36.80
2023-05-25T15:33:58.997Z,36.40
2023-05-25T15:36:26.908Z,36.60
2023-05-25T15:38:54.335Z,36.60
2023-05-25T15:41:21.800Z,36.40
2023-05-25T15:43:58.108Z,36.30
2023-05-25T15:46:26.166Z,36.40
2023-05-25T15:48:54.112Z,36.00
2023-05-25T15:51:21.719Z,35.90
2023-05-25T15:53:49.154Z,35.70
2023-05-25T15:56:16.564Z,35.50
2023-05-25T15:58:47.063Z,35.50
2023-05-25T16:01:14.806Z,35.40
2023-05-25T16:03:43.104Z,35.10
2023-05-25T16:06:11.111Z,35.20
2023-05-25T16:08:38.630Z,35.60
2023-05-25T16:11:06.198Z,35.60
2023-05-25T16:13:33.637Z,35.60
2023-05-25T16:16:01.114Z,35.50
2023-05-25T16:18:28.527Z,35.60
2023-05-25T16:20:57.587Z,35.90
2023-05-25T16:23:25.313Z,36.00
2023-05-25T16:25:52.961Z,36.20
2023-05-25T16:28:20.731Z,36.10
2023-05-25T16:30:48.011Z,35.80
2023-05-25T16:33:15.503Z,35.60
2023-05-25T16:35:43.589Z,35.50
2023-05-25T16:38:11.331Z,35.60
2023-05-25T16:40:38.752Z,35.60
2023-05-25T16:43:06.012Z,35.80
2023-05-25T16:45:33.414Z,35.90
2023-05-25T16:48:00.911Z,35.90
2023-05-25T16:50:28.986Z,36.40
2023-05-25T16:52:57.041Z,36.50
2023-05-25T16:55:24.508Z,36.60
2023-05-25T16:57:52.181Z,36.80
2023-05-25T17:00:19.992Z,37.20
2023-05-25T17:02:47.542Z,37.20
2023-05-25T17:05:15.072Z,37.00
2023-05-25T17:07:42.390Z,37.00
2023-05-25T17:10:10.294Z,37.10
2023-05-25T17:12:37.800Z,37.00
2023-05-25T17:15:05.942Z,37.90
2023-05-25T17:17:33.224Z,37.00
2023-05-25T17:20:00.705Z,36.90
2023-05-25T17:22:28.081Z,37.10
2023-05-25T17:24:55.614Z,37.20
2023-05-25T17:27:23.134Z,37.20
2023-05-25T17:29:50.678Z,37.00
2023-05-25T17:32:18.162Z,37.10
2023-05-25T17:34:45.652Z,37.10
2023-05-25T17:37:13.073Z,37.40
2023-05-25T17:39:42.516Z,37.40
2023-05-25T17:42:09.894Z,37.50
2023-05-25T17:44:40.166Z,37.50
2023-05-25T17:47:10.032Z,37.50
2023-05-25T17:49:38.226Z,37.80
2023-05-25T17:52:07.414Z,37.80
2023-05-25T17:54:35.503Z,38.10
2023-05-25T17:57:02.880Z,38.20
2023-05-25T17:59:30.725Z,38.40
2023-05-25T18:01:58.104Z,38.70
2023-05-25T18:04:25.656Z,38.70
2023-05-25T18:06:53.299Z,38.80
2023-05-25T18:09:20.715Z,39.00
2023-05-25T18:11:48.215Z,39.30
2023-05-25T18:14:15.741Z,39.50
2023-05-25T18:16:44.664Z,39.50
2023-05-25T18:19:12.247Z,39.60
2023-05-25T18:21:40.430Z,39.90
2023-05-25T18:24:08.598Z,40.00
2023-05-25T18:26:36.210Z,40.40
2023-05-25T18:29:03.743Z,40.60
2023-05-25T18:31:32.387Z,40.60
2023-05-25T18:34:00.438Z,40.80
2023-05-25T18:36:27.783Z,41.20
2023-05-25T18:38:55.060Z,41.20
2023-05-25T18:41:22.813Z,41.40
2023-05-25T18:43:50.198Z,41.70
2023-05-25T18:46:17.686Z,41.80
2023-05-25T18:48:45.053Z,41.80
2023-05-25T18:51:12.535Z,41.90
2023-05-25T18:53:41.553Z,41.90
2023-05-25T18:56:08.968Z,42.00
2023-05-25T18:58:36.445Z,42.20
2023-05-25T19:01:03.721Z,42.40
2023-05-25T19:03:31.341Z,42.40
2023-05-25T19:05:59.337Z,42.60
2023-05-25T19:08:26.592Z,42.70
2023-05-25T19:10:54.040Z,42.60
2023-05-25T19:13:22.882Z,42.90
2023-05-25T19:15:50.894Z,42.90
2023-05-25T19:18:18.495Z,42.90
2023-05-25T19:20:46.252Z,43.10
2023-05-25T19:23:13.924Z,43.10
2023-05-25T19:25:41.277Z,43.40
2023-05-25T19:28:08.665Z,43.40
2023-05-25T19:30:36.138Z,43.60
2023-05-25T19:33:03.719Z,43.80
2023-05-25T19:35:31.196Z,43.70
2023-05-25T19:38:00.527Z,44.00
2023-05-25T19:40:29.426Z,44.10
2023-05-25T19:42:56.846Z,44.30
2023-05-25T19:45:24.320Z,44.50
2023-05-25T19:47:52.499Z,44.50
2023-05-25T19:50:20.299Z,44.40
2023-05-25T19:52:47.747Z,44.70
2023-05-25T19:55:14.985Z,44.80
2023-05-25T19:57:42.472Z,44.90
2023-05-25T20:00:17.420Z,45.00
2023-05-25T20:02:52.679Z,45.00
2023-05-25T20:05:20.322Z,45.30
2023-05-25T20:07:47.856Z,45.40
2023-05-25T20:10:15.162Z,45.70
2023-05-25T20:12:42.604Z,45.70
2023-05-25T20:15:10.086Z,45.90
2023-05-25T20:17:37.617Z,45.70
2023-05-25T20:20:05.567Z,46.20
2023-05-25T20:22:33.207Z,46.10
2023-05-25T20:25:01.052Z,46.30
2023-05-25T20:27:28.565Z,46.20
2023-05-25T20:29:55.872Z,46.40
2023-05-25T20:32:23.315Z,46.50
2023-05-25T20:34:51.023Z,46.40
2023-05-25T20:37:18.444Z,46.60
2023-05-25T20:39:46.167Z,46.60
2023-05-25T20:42:14.146Z,46.60
2023-05-25T20:44:41.699Z,46.70
2023-05-25T20:47:09.149Z,46.70
2023-05-25T20:49:36.601Z,46.70
2023-05-25T20:52:04.191Z,47.10
2023-05-25T20:54:31.579Z,47.20
2023-05-25T20:57:01.394Z,47.30
2023-05-25T20:59:31.602Z,47.40
2023-05-25T21:01:59.109Z,47.50
2023-05-25T21:04:26.496Z,47.50
2023-05-25T21:06:53.946Z,47.80
2023-05-25T21:09:22.318Z,47.80
2023-05-25T21:11:49.955Z,47.80
2023-05-25T21:14:17.315Z,48.00
2023-05-25T21:16:45.037Z,48.00
2023-05-25T21:19:12.607Z,48.40
2023-05-25T21:21:40.000Z,48.40
2023-05-25T21:24:07.469Z,48.50
2023-05-25T21:26:34.957Z,48.30
2023-05-25T21:29:02.342Z,48.60
2023-05-25T21:31:29.813Z,48.70
2023-05-25T21:33:58.795Z,48.80
2023-05-25T21:36:27.442Z,48.70
2023-05-25T21:38:54.853Z,48.80
2023-05-25T21:41:23.314Z,49.00
2023-05-25T21:43:50.763Z,49.20
2023-05-25T21:46:18.139Z,49.30
2023-05-25T21:48:45.626Z,49.50
2023-05-25T21:51:12.968Z,49.50
2023-05-25T21:53:40.303Z,49.40
2023-05-25T21:56:07.749Z,49.70
2023-05-25T21:58:35.244Z,49.70
2023-05-25T22:01:03.490Z,49.90
2023-05-25T22:03:31.089Z,50.00
2023-05-25T22:05:58.559Z,50.10
2023-05-25T22:08:26.302Z,50.30
2023-05-25T22:10:53.561Z,50.10
2023-05-25T22:13:21.177Z,50.40
2023-05-25T22:15:48.583Z,50.20
2023-05-25T22:18:15.918Z,50.60
2023-05-25T22:20:43.306Z,50.70
2023-05-25T22:23:11.906Z,50.70
2023-05-25T22:25:39.422Z,51.00
2023-05-25T22:28:06.973Z,51.00
2023-05-25T22:30:34.872Z,51.30
2023-05-25T22:33:02.326Z,51.20
2023-05-25T22:35:29.762Z,51.00
2023-05-25T22:37:57.092Z,51.30
2023-05-25T22:40:24.665Z,51.20
2023-05-25T22:42:51.963Z,51.40
2023-05-25T22:45:21.020Z,51.20
2023-05-25T22:47:48.643Z,51.40
2023-05-25T22:50:16.057Z,51.50
2023-05-25T22:52:43.535Z,51.50
2023-05-25T22:55:11.063Z,51.60
2023-05-25T22:57:39.228Z,51.80
2023-05-25T23:00:07.278Z,52.00
2023-05-25T23:02:34.775Z,52.00
2023-05-25T23:05:02.304Z,52.10
2023-05-25T23:07:29.947Z,52.30
2023-05-25T23:09:57.386Z,52.40
2023-05-25T23:12:24.817Z,52.20
2023-05-25T23:14:53.396Z,52.50
2023-05-25T23:17:21.901Z,52.50
2023-05-25T23:19:49.360Z,52.60
2023-05-25T23:22:16.849Z,52.80
2023-05-25T23:24:44.139Z,52.70
2023-05-25T23:27:11.882Z,52.90
2023-05-25T23:29:39.275Z,53.00
2023-05-25T23:32:06.900Z,53.20
2023-05-25T23:34:34.274Z,53.40
2023-05-25T23:37:03.286Z,53.10
2023-05-25T23:39:31.895Z,53.20
2023-05-25T23:41:59.395Z,53.40
2023-05-25T23:44:26.657Z,53.20
2023-05-25T23:46:54.033Z,53.30
2023-05-25T23:49:21.935Z,53.50
2023-05-25T23:51:49.434Z,53.70
2023-05-25T23:54:16.975Z,53.70
2023-05-25T23:56:44.334Z,53.60
2023-05-25T23:59:14.447Z,53.60
